Time;durP1;ratioP1;P1;durP2;ratioP2;P2;SDS_P1;SDS_P2;PMS_P1;PMS_P2;Temp;Humidity;BMP_temperature;BMP_pressure;BME280_temperature;BME280_humidity;BME280_pressure;Samples;Min_cycle;Max_cycle;Signal;HPM_P1;HPM_P2
2021/09/09 00:01:49;;;;;;;19.33;11.15;;;;;;;16.60;89.57;96070.75;5057554;28;20201;-72
2021/09/09 00:04:15;;;;;;;18.45;10.52;;;;;;;16.50;89.77;96067.78;5057641;28;20201;-72
2021/09/09 00:06:42;;;;;;;18.27;10.88;;;;;;;16.65;89.48;96066.41;5056556;28;20228;-72
2021/09/09 00:09:08;;;;;;;17.27;10.68;;;;;;;16.73;88.60;96070.66;5057182;28;20204;-72
2021/09/09 00:11:36;;;;;;;18.25;10.48;;;;;;;16.78;88.62;96063.63;5057431;28;20200;-72
2021/09/09 00:14:02;;;;;;;15.52;9.95;;;;;;;16.76;86.96;96059.56;5056612;28;20200;-73
2021/09/09 00:16:29;;;;;;;13.38;8.55;;;;;;;16.63;86.25;96065.78;5057443;28;20239;-72
2021/09/09 00:18:55;;;;;;;13.60;8.90;;;;;;;16.80;86.03;96071.38;5060479;28;20240;-72
2021/09/09 00:21:22;;;;;;;18.00;10.00;;;;;;;16.81;86.61;96065.03;5061213;28;20567;-72
2021/09/09 00:23:48;;;;;;;15.02;10.15;;;;;;;16.69;87.93;96064.94;5060739;28;20211;-72
2021/09/09 00:26:14;;;;;;;16.58;11.02;;;;;;;16.72;88.69;96064.50;5060268;28;20204;-72
2021/09/09 00:28:42;;;;;;;16.77;10.13;;;;;;;16.71;88.01;96065.53;5061046;28;20215;-72
2021/09/09 00:31:09;;;;;;;14.68;9.07;;;;;;;16.36;86.68;96062.78;5060455;28;20580;-72
2021/09/09 00:33:35;;;;;;;17.52;9.55;;;;;;;16.50;86.38;96054.47;5060343;28;20207;-72
2021/09/09 00:36:02;;;;;;;16.63;9.95;;;;;;;16.29;88.17;96062.00;5060256;28;20215;-72
2021/09/09 00:38:29;;;;;;;17.67;10.50;;;;;;;16.33;89.03;96061.38;5060263;28;20270;-72
2021/09/09 00:40:55;;;;;;;17.92;10.73;;;;;;;16.35;89.11;96067.28;5060054;28;20207;-72
2021/09/09 00:43:22;;;;;;;13.20;9.02;;;;;;;16.31;86.94;96060.75;5060318;28;20212;-72
2021/09/09 00:45:54;;;;;;;14.23;9.30;;;;;;;16.60;85.41;96060.91;5059497;28;20200;-72
2021/09/09 00:48:21;;;;;;;13.40;9.00;;;;;;;16.35;86.46;96061.94;5060116;28;20227;-72
2021/09/09 00:50:49;;;;;;;13.00;9.05;;;;;;;16.55;85.89;96052.78;5060120;28;20213;-72
2021/09/09 00:53:15;;;;;;;15.82;9.38;;;;;;;16.47;86.29;96060.25;5059797;28;20197;-71
2021/09/09 00:55:42;;;;;;;15.25;9.40;;;;;;;16.41;86.88;96058.44;5058963;28;20216;-72
2021/09/09 00:58:09;;;;;;;16.23;9.18;;;;;;;16.25;87.50;96060.78;5060070;28;20224;-72
2021/09/09 01:00:36;;;;;;;12.63;7.63;;;;;;;16.25;85.84;96068.75;5059628;28;20204;-72
2021/09/09 01:03:06;;;;;;;12.95;8.30;;;;;;;16.36;85.91;96062.78;5058715;28;20205;-71
2021/09/09 01:05:32;;;;;;;14.13;8.77;;;;;;;16.14;87.66;96072.91;5059067;28;20223;-72
2021/09/09 01:07:59;;;;;;;13.48;9.13;;;;;;;16.27;87.60;96064.88;5061205;28;20216;-72
2021/09/09 01:10:26;;;;;;;17.25;10.50;;;;;;;16.30;88.26;96060.97;5059189;28;20203;-72
2021/09/09 01:12:52;;;;;;;18.77;10.85;;;;;;;16.36;89.28;96068.09;5059398;28;20207;-72
2021/09/09 01:15:20;;;;;;;20.08;10.48;;;;;;;16.24;89.80;96062.63;5059389;28;20201;-72
2021/09/09 01:17:47;;;;;;;15.52;9.82;;;;;;;16.11;89.42;96068.00;5059823;28;20319;-72
2021/09/09 01:20:16;;;;;;;16.75;11.05;;;;;;;16.49;88.87;96063.47;5058982;28;20207;-71
2021/09/09 01:22:43;;;;;;;15.82;10.55;;;;;;;16.50;89.19;96062.44;5059952;28;20219;-73
2021/09/09 01:25:12;;;;;;;16.02;10.13;;;;;;;16.47;88.53;96059.41;5059981;28;20200;-73
2021/09/09 01:27:39;;;;;;;16.55;10.05;;;;;;;16.35;88.58;96061.94;5058757;28;20659;-73
2021/09/09 01:30:06;;;;;;;18.42;11.52;;;;;;;16.48;89.33;96071.69;5059686;28;20201;-73
2021/09/09 01:32:33;;;;;;;17.58;10.55;;;;;;;16.36;89.31;96070.75;5059365;28;20322;-73
2021/09/09 01:34:59;;;;;;;14.43;9.48;;;;;;;16.14;88.49;96075.59;5059516;28;20204;-73
2021/09/09 01:37:26;;;;;;;15.70;9.70;;;;;;;16.20;88.29;96068.56;5058233;28;21045;-73
2021/09/09 01:39:55;;;;;;;19.70;11.85;;;;;;;16.21;89.41;96078.19;5059819;28;20212;-73
2021/09/09 01:42:23;;;;;;;18.58;10.50;;;;;;;16.20;90.63;96077.34;5058853;28;20200;-73
2021/09/09 01:44:50;;;;;;;21.02;11.88;;;;;;;16.27;90.20;96074.72;5058923;28;20212;-73
2021/09/09 01:47:16;;;;;;;18.88;10.18;;;;;;;16.12;89.52;96069.66;5058080;28;20590;-73
2021/09/09 01:49:43;;;;;;;19.23;12.00;;;;;;;16.21;90.31;96071.03;5059497;28;21009;-72
2021/09/09 01:52:09;;;;;;;18.08;11.50;;;;;;;16.16;90.65;96070.84;5058496;28;20208;-72
2021/09/09 01:54:36;;;;;;;22.38;11.90;;;;;;;16.27;90.18;96070.19;5059006;28;20216;-72
2021/09/09 01:57:03;;;;;;;17.40;10.90;;;;;;;16.13;89.35;96065.97;5057662;28;20217;-72
2021/09/09 01:59:30;;;;;;;20.67;12.40;;;;;;;16.29;90.22;96067.31;5058489;28;20227;-73
2021/09/09 02:01:57;;;;;;;21.58;11.88;;;;;;;16.10;90.58;96069.06;5058848;28;20203;-72
2021/09/09 02:04:26;;;;;;;20.00;12.85;;;;;;;16.22;91.04;96069.19;5059136;28;20212;-72
2021/09/09 02:06:53;;;;;;;18.85;12.20;;;;;;;16.20;90.46;96071.25;5054755;28;21050;-72
2021/09/09 02:09:20;;;;;;;17.42;10.90;;;;;;;16.11;89.08;96068.00;5058023;28;20583;-72
2021/09/09 02:11:46;;;;;;;20.33;11.88;;;;;;;16.09;90.05;96072.75;5058749;28;21086;-72
2021/09/09 02:14:13;;;;;;;21.30;11.50;;;;;;;16.17;89.60;96063.69;5058574;28;20204;-72
2021/09/09 02:16:40;;;;;;;19.00;11.30;;;;;;;16.15;89.48;96066.59;5057870;28;20228;-72
2021/09/09 02:19:07;;;;;;;19.80;10.93;;;;;;;16.10;89.07;96068.22;5059255;28;20228;-72
2021/09/09 02:21:34;;;;;;;20.23;11.82;;;;;;;16.20;89.06;96068.56;5059320;28;20213;-72
2021/09/09 02:24:00;;;;;;;17.42;11.32;;;;;;;16.30;88.27;96059.13;5058797;28;20207;-72
2021/09/09 02:26:26;;;;;;;18.95;10.95;;;;;;;16.26;87.65;96060.59;5058203;28;20228;-72
2021/09/09 02:28:53;;;;;;;21.38;10.52;;;;;;;16.25;87.69;96060.78;5059267;28;20204;-72
2021/09/09 02:31:19;;;;;;;15.65;10.20;;;;;;;16.18;87.31;96068.81;5058321;28;20204;-72
2021/09/09 02:33:47;;;;;;;16.65;10.95;;;;;;;16.04;88.54;96061.13;5058875;28;20196;-72
2021/09/09 02:36:14;;;;;;;21.40;11.30;;;;;;;15.99;88.38;96067.06;5058583;28;20676;-72
2021/09/09 02:38:40;;;;;;;17.05;11.13;;;;;;;16.01;89.07;96073.00;5057317;28;20758;-72
2021/09/09 02:41:07;;;;;;;18.70;11.80;;;;;;;16.02;89.64;96063.19;5058377;28;20204;-72
2021/09/09 02:43:33;;;;;;;21.13;12.57;;;;;;;16.00;89.42;96058.09;5058717;28;20208;-72
2021/09/09 02:45:59;;;;;;;17.25;11.15;;;;;;;15.83;89.42;96055.34;5057407;28;20212;-72
2021/09/09 02:48:26;;;;;;;16.50;10.88;;;;;;;15.85;89.03;96060.22;5058187;28;20681;-72
2021/09/09 02:50:54;;;;;;;18.45;11.38;;;;;;;15.94;89.22;96063.44;5057843;28;20227;-72
2021/09/09 02:53:20;;;;;;;21.33;11.63;;;;;;;15.92;89.39;96060.16;5057470;28;20274;-73
2021/09/09 02:55:47;;;;;;;20.10;11.30;;;;;;;15.67;89.20;96056.66;5056651;28;20216;-73
2021/09/09 02:58:13;;;;;;;16.50;10.80;;;;;;;15.80;87.98;96061.09;5057216;28;20236;-72
2021/09/09 03:00:40;;;;;;;20.67;12.50;;;;;;;15.81;89.38;96058.22;5057717;28;20204;-72
2021/09/09 03:03:06;;;;;;;17.10;11.07;;;;;;;15.78;89.40;96058.63;5057497;28;20204;-73
2021/09/09 03:05:33;;;;;;;17.98;9.50;;;;;;;15.55;88.41;96057.53;5056970;28;20212;-73
2021/09/09 03:08:00;;;;;;;18.33;10.65;;;;;;;15.74;87.71;96052.09;5057381;28;20224;-73
2021/09/09 03:10:27;;;;;;;26.42;12.15;;;;;;;15.77;89.27;96050.88;5057526;28;20268;-72
2021/09/09 03:12:54;;;;;;;20.05;10.95;;;;;;;15.57;88.57;96050.16;5057227;28;21016;-72
2021/09/09 03:15:20;;;;;;;18.08;11.45;;;;;;;15.54;88.49;96050.56;5056677;28;20329;-72
2021/09/09 03:17:47;;;;;;;18.45;11.10;;;;;;;15.67;88.13;96047.84;5057681;28;20223;-72
2021/09/09 03:20:14;;;;;;;23.20;11.23;;;;;;;15.83;87.40;96042.06;5057131;28;20196;-72
2021/09/09 03:22:41;;;;;;;19.55;11.45;;;;;;;15.68;87.62;96041.50;5057980;28;20702;-72
2021/09/09 03:25:10;;;;;;;22.20;11.40;;;;;;;15.78;88.58;96036.56;5056861;28;20197;-72
2021/09/09 03:27:37;;;;;;;20.83;11.68;;;;;;;15.70;88.97;96034.16;5057192;28;20220;-72
2021/09/09 03:30:04;;;;;;;17.58;11.13;;;;;;;15.64;88.44;96040.31;5057402;28;20204;-72
2021/09/09 03:32:31;;;;;;;23.40;13.15;;;;;;;15.35;91.48;96041.69;5057292;28;20207;-73
2021/09/09 03:34:57;;;;;;;17.40;11.10;;;;;;;15.33;90.49;96040.25;5056894;28;20200;-72
2021/09/09 03:37:24;;;;;;;14.93;9.70;;;;;;;15.25;90.12;96035.19;5056486;28;20235;-72
2021/09/09 03:39:50;;;;;;;15.18;10.00;;;;;;;15.30;89.63;96038.03;5056992;28;21193;-72
2021/09/09 03:42:18;;;;;;;22.20;10.90;;;;;;;15.69;88.85;96029.88;5057086;28;20574;-72
2021/09/09 03:44:47;;;;;;;21.65;11.88;;;;;;;15.57;90.04;96031.56;5056938;28;20569;-72
2021/09/09 03:47:14;;;;;;;24.65;12.20;;;;;;;15.59;90.50;96037.47;5056290;28;20220;-72
2021/09/09 03:49:40;;;;;;;21.45;12.90;;;;;;;15.71;91.54;96038.44;5057074;28;20204;-72
2021/09/09 03:52:07;;;;;;;17.23;11.48;;;;;;;15.73;90.49;96029.22;5057035;28;20207;-72
2021/09/09 03:54:34;;;;;;;18.17;11.13;;;;;;;15.68;90.19;96031.72;5056810;28;20212;-72
2021/09/09 03:57:00;;;;;;;17.58;11.73;;;;;;;15.80;89.96;96031.84;5055864;28;20263;-72
2021/09/09 03:59:28;;;;;;;25.85;13.05;;;;;;;15.87;90.66;96036.91;5056599;28;20247;-72
2021/09/09 04:01:54;;;;;;;24.65;12.40;;;;;;;15.81;89.93;96030.81;5057244;28;20238;-72
2021/09/09 04:04:21;;;;;;;25.35;11.93;;;;;;;15.79;89.93;96036.34;5056766;28;20216;-73
2021/09/09 04:06:47;;;;;;;24.50;14.32;;;;;;;15.81;91.21;96046.75;5056225;28;20216;-72
2021/09/09 04:09:14;;;;;;;26.23;14.80;;;;;;;15.61;93.29;96040.75;5057297;28;20193;-72
2021/09/09 04:11:40;;;;;;;27.02;13.68;;;;;;;15.62;92.38;96039.72;5057437;28;20201;-72
2021/09/09 04:14:06;;;;;;;21.50;12.52;;;;;;;15.67;92.61;96037.22;5056403;28;20196;-72
2021/09/09 04:16:34;;;;;;;27.63;14.35;;;;;;;15.94;92.69;96043.00;5056729;28;20232;-72
2021/09/09 04:19:01;;;;;;;24.42;14.38;;;;;;;15.82;93.09;96035.91;5057444;28;20315;-72
2021/09/09 04:21:27;;;;;;;23.67;13.23;;;;;;;15.79;92.48;96038.19;5057083;28;20208;-72
2021/09/09 04:23:54;;;;;;;23.45;13.35;;;;;;;15.75;92.63;96037.00;5057102;28;20216;-72
2021/09/09 04:26:20;;;;;;;19.02;11.40;;;;;;;15.84;90.48;96046.34;5057074;28;20232;-72
2021/09/09 04:28:46;;;;;;;24.48;12.57;;;;;;;15.78;90.80;96037.34;5056623;28;20193;-72
2021/09/09 04:31:13;;;;;;;23.80;12.20;;;;;;;15.86;90.16;96039.78;5057300;28;20204;-72
2021/09/09 04:33:41;;;;;;;18.88;12.10;;;;;;;15.92;90.38;96034.44;5057673;28;20694;-72
2021/09/09 04:36:08;;;;;;;19.23;12.45;;;;;;;15.73;90.63;96042.50;5055769;28;20197;-72
2021/09/09 04:38:34;;;;;;;19.67;12.75;;;;;;;15.58;90.95;96038.50;5057212;28;20235;-72
2021/09/09 04:41:01;;;;;;;20.20;12.25;;;;;;;15.56;91.06;96044.03;5057734;28;20201;-72
2021/09/09 04:43:27;;;;;;;20.08;12.18;;;;;;;15.56;90.47;96048.53;5056485;28;20209;-73
2021/09/09 04:45:54;;;;;;;23.83;12.90;;;;;;;15.61;90.63;96048.72;5055150;28;20205;-72
2021/09/09 04:48:20;;;;;;;21.40;12.38;;;;;;;15.46;90.05;96051.63;5056551;28;20224;-73
2021/09/09 04:50:48;;;;;;;24.77;11.98;;;;;;;15.70;90.11;96045.59;5056261;28;20201;-72
2021/09/09 04:53:14;;;;;;;17.30;11.40;;;;;;;15.37;90.75;96044.94;5055925;28;20205;-73
2021/09/09 04:55:41;;;;;;;26.85;13.07;;;;;;;15.48;90.76;96046.94;5055770;28;20231;-72
2021/09/09 04:58:07;;;;;;;20.42;12.40;;;;;;;15.47;91.31;96047.94;5055828;28;20224;-72
2021/09/09 05:00:34;;;;;;;24.25;13.20;;;;;;;15.46;91.65;96048.16;5056555;28;20228;-72
2021/09/09 05:03:00;;;;;;;20.58;12.95;;;;;;;15.53;90.85;96040.97;5057292;28;20196;-72
2021/09/09 05:05:26;;;;;;;22.23;12.30;;;;;;;15.63;89.53;96046.66;5059518;28;20208;-72
2021/09/09 05:07:54;;;;;;;24.85;12.63;;;;;;;15.74;90.27;96040.66;5059176;28;20220;-72
2021/09/09 05:10:21;;;;;;;22.08;11.95;;;;;;;15.62;89.90;96045.03;5060600;28;20212;-72
2021/09/09 05:12:47;;;;;;;24.23;12.77;;;;;;;15.63;90.08;96049.31;5059395;28;20203;-72
2021/09/09 05:15:14;;;;;;;22.42;11.38;;;;;;;15.68;88.85;96047.66;5059120;28;20197;-73
2021/09/09 05:17:41;;;;;;;22.75;12.13;;;;;;;15.59;89.98;96054.25;5059174;28;20224;-72
2021/09/09 05:20:08;;;;;;;20.88;12.15;;;;;;;15.68;90.20;96050.31;5059923;28;20216;-72
2021/09/09 05:22:35;;;;;;;20.23;10.68;;;;;;;15.50;89.97;96042.25;5059368;28;20192;-72
2021/09/09 05:25:05;;;;;;;17.58;11.77;;;;;;;15.73;88.93;96047.81;5059337;28;20204;-72
2021/09/09 05:27:31;;;;;;;15.77;10.23;;;;;;;15.40;89.32;96051.66;5058485;28;20220;-72
2021/09/09 05:29:57;;;;;;;16.75;10.55;;;;;;;15.54;88.90;96050.56;5059571;28;20193;-72
2021/09/09 05:32:24;;;;;;;17.13;11.13;;;;;;;15.51;90.72;96048.34;5058869;28;20209;-73
2021/09/09 05:34:51;;;;;;;21.75;12.85;;;;;;;15.69;91.40;96051.91;5059244;28;20211;-72
2021/09/09 05:37:18;;;;;;;20.85;12.73;;;;;;;15.70;91.22;96053.56;5058305;28;20243;-72
2021/09/09 05:39:44;;;;;;;24.05;13.00;;;;;;;15.82;91.74;96056.34;5059343;28;20228;-72
2021/09/09 05:42:12;;;;;;;19.52;11.88;;;;;;;16.08;91.19;96055.16;5058900;28;20201;-72
2021/09/09 05:44:38;;;;;;;19.02;11.07;;;;;;;15.88;92.00;96051.00;5059596;28;20204;-72
2021/09/09 05:47:05;;;;;;;22.45;11.80;;;;;;;15.93;92.65;96046.66;5057943;28;20307;-72
2021/09/09 05:49:32;;;;;;;19.73;12.85;;;;;;;16.28;91.64;96050.56;5058635;28;20224;-72
2021/09/09 05:51:58;;;;;;;19.20;12.02;;;;;;;16.48;91.45;96056.53;5059690;28;20203;-72
2021/09/09 05:54:25;;;;;;;23.73;11.38;;;;;;;16.48;91.97;96053.84;5059215;28;20294;-72
2021/09/09 05:56:51;;;;;;;23.02;13.48;;;;;;;16.57;92.15;96056.06;5057964;28;20224;-72
2021/09/09 05:59:19;;;;;;;24.30;13.88;;;;;;;16.80;91.88;96050.09;5058641;28;20220;-72
2021/09/09 06:01:47;;;;;;;25.55;13.10;;;;;;;16.71;91.90;96046.09;5058829;28;20228;-72
2021/09/09 06:04:14;;;;;;;27.17;14.40;;;;;;;16.68;92.21;96052.66;5058148;28;20650;-72
2021/09/09 06:06:40;;;;;;;24.05;14.52;;;;;;;16.74;92.30;96043.00;5058811;28;20231;-72
2021/09/09 06:09:07;;;;;;;20.70;14.02;;;;;;;16.64;93.11;96048.00;5058691;28;20197;-72
2021/09/09 06:11:33;;;;;;;30.38;15.45;;;;;;;16.83;92.67;96049.69;5058328;28;20219;-72
2021/09/09 06:14:00;;;;;;;24.13;14.55;;;;;;;16.91;92.58;96052.03;5058644;28;20211;-72
2021/09/09 06:16:27;;;;;;;25.08;14.60;;;;;;;17.15;92.45;96047.47;5057996;28;20224;-72
2021/09/09 06:18:54;;;;;;;25.00;15.00;;;;;;;17.10;92.77;96054.50;5057966;28;20193;-71
2021/09/09 06:21:20;;;;;;;22.77;14.48;;;;;;;17.12;93.19;96055.91;5058372;28;20204;-72
2021/09/09 06:23:47;;;;;;;21.95;13.98;;;;;;;17.17;94.06;96053.41;5059119;28;20196;-71
2021/09/09 06:26:13;;;;;;;27.88;15.55;;;;;;;17.32;93.96;96045.06;5057152;28;20212;-71
2021/09/09 06:28:40;;;;;;;26.38;15.32;;;;;;;17.48;93.29;96050.59;5058057;28;20208;-71
2021/09/09 06:31:07;;;;;;;24.13;15.27;;;;;;;17.34;94.53;96046.47;5057485;28;21083;-71
2021/09/09 06:33:35;;;;;;;23.10;13.65;;;;;;;17.57;92.61;96049.25;5057244;28;20205;-71
2021/09/09 06:36:01;;;;;;;24.45;15.23;;;;;;;17.57;92.74;96053.78;5056703;28;20204;-72
2021/09/09 06:38:28;;;;;;;24.60;14.95;;;;;;;17.78;93.14;96056.75;5057424;28;20204;-71
2021/09/09 06:40:54;;;;;;;30.35;14.75;;;;;;;17.75;89.99;96062.56;5057637;28;20587;-71
2021/09/09 06:43:21;;;;;;;27.38;14.50;;;;;;;17.94;89.62;96051.63;5055537;28;20211;-71
2021/09/09 06:45:48;;;;;;;26.00;13.95;;;;;;;17.91;88.39;96051.28;5056749;28;20215;-71
2021/09/09 06:48:15;;;;;;;25.08;13.32;;;;;;;18.18;88.40;96052.56;5057363;28;20275;-71
2021/09/09 06:50:43;;;;;;;23.00;13.50;;;;;;;18.33;86.97;96056.41;5057753;28;20212;-71
2021/09/09 06:53:09;;;;;;;23.23;13.48;;;;;;;18.34;86.70;96053.50;5057159;28;20205;-71
2021/09/09 06:55:35;;;;;;;23.08;13.63;;;;;;;18.54;84.94;96058.53;5056818;28;20619;-71
2021/09/09 06:58:03;;;;;;;21.40;12.65;;;;;;;18.98;84.07;96062.28;5057400;28;20221;-72
2021/09/09 07:00:29;;;;;;;24.60;13.90;;;;;;;19.13;84.91;96064.50;5057393;28;20232;-72
2021/09/09 07:02:56;;;;;;;18.60;11.95;;;;;;;18.82;84.28;96067.50;5058098;28;20201;-71
2021/09/09 07:05:22;;;;;;;22.52;12.95;;;;;;;19.08;84.08;96069.72;5056119;28;20216;-72
2021/09/09 07:07:50;;;;;;;23.15;12.32;;;;;;;19.35;84.12;96073.56;5057021;28;20221;-71
2021/09/09 07:10:18;;;;;;;22.65;12.40;;;;;;;19.20;83.45;96065.19;5056884;28;20199;-71
2021/09/09 07:12:45;;;;;;;18.40;12.00;;;;;;;19.10;84.14;96075.66;5057849;28;20208;-72
2021/09/09 07:15:12;;;;;;;20.95;12.82;;;;;;;19.18;84.92;96076.13;5056323;28;20205;-73
2021/09/09 07:17:38;;;;;;;22.05;12.85;;;;;;;19.26;84.38;96075.75;5057122;28;20225;-73
2021/09/09 07:20:05;;;;;;;23.13;13.27;;;;;;;19.10;85.83;96070.31;5057036;28;20216;-72
2021/09/09 07:22:32;;;;;;;21.15;13.43;;;;;;;19.32;85.10;96079.34;5057465;28;20561;-72
2021/09/09 07:25:00;;;;;;;22.65;13.50;;;;;;;19.52;85.14;96083.28;5056509;28;20200;-72
2021/09/09 07:27:26;;;;;;;19.98;12.73;;;;;;;19.35;85.20;96084.25;5056601;28;20224;-73
2021/09/09 07:29:53;;;;;;;20.77;13.32;;;;;;;19.46;85.70;96075.38;5057390;28;20219;-72
2021/09/09 07:32:19;;;;;;;23.45;14.02;;;;;;;19.52;84.55;96074.44;5056640;28;20200;-72
2021/09/09 07:34:46;;;;;;;24.67;13.82;;;;;;;19.81;83.24;96068.91;5057003;28;20200;-73
2021/09/09 07:37:12;;;;;;;21.60;13.27;;;;;;;19.96;82.70;96078.06;5055176;28;20421;-73
2021/09/09 07:39:39;;;;;;;22.15;12.93;;;;;;;20.08;81.73;96078.03;5054941;28;20862;-72
2021/09/09 07:42:07;;;;;;;22.33;12.60;;;;;;;20.37;79.47;96078.56;5056092;28;20200;-73
2021/09/09 07:44:33;;;;;;;22.05;12.50;;;;;;;20.20;78.81;96082.28;5057178;28;20866;-72
2021/09/09 07:47:01;;;;;;;18.40;12.32;;;;;;;20.57;79.83;96078.94;5054688;28;20660;-72
2021/09/09 07:49:27;;;;;;;21.85;12.80;;;;;;;20.62;79.92;96088.91;5055767;28;20209;-72
2021/09/09 07:51:54;;;;;;;20.13;11.80;;;;;;;20.42;77.35;96086.69;5056690;28;20273;-72
2021/09/09 07:54:21;;;;;;;21.65;12.18;;;;;;;20.43;77.61;96092.84;5056163;28;20295;-72
2021/09/09 07:56:48;;;;;;;18.67;11.50;;;;;;;20.86;77.29;96097.41;5054631;28;20633;-73
2021/09/09 07:59:16;;;;;;;20.27;11.98;;;;;;;21.05;76.31;96097.94;5056362;28;20232;-72
2021/09/09 08:01:44;;;;;;;21.77;11.98;;;;;;;20.80;77.24;96091.38;5055967;28;20200;-72
2021/09/09 08:04:15;;;;;;;19.50;12.18;;;;;;;20.77;75.91;96097.22;5056126;28;20202;-72
2021/09/09 08:06:42;;;;;;;18.40;11.60;;;;;;;21.10;75.68;96090.00;5055522;28;20224;-73
2021/09/09 08:09:09;;;;;;;18.08;11.60;;;;;;;21.25;75.12;96091.03;5056071;28;20224;-72
2021/09/09 08:11:35;;;;;;;18.55;11.13;;;;;;;21.13;75.65;96098.34;5056135;28;20201;-72
2021/09/09 08:14:02;;;;;;;19.42;11.75;;;;;;;21.39;75.53;96102.22;5055947;28;20254;-73
2021/09/09 08:16:30;;;;;;;19.00;12.30;;;;;;;21.75;75.58;96097.91;5055484;28;20626;-73
2021/09/09 08:18:56;;;;;;;18.88;11.35;;;;;;;21.41;75.56;96094.72;5055425;28;20207;-73
2021/09/09 08:21:23;;;;;;;16.92;10.90;;;;;;;21.43;75.17;96094.25;5055163;28;20228;-72
2021/09/09 08:23:49;;;;;;;15.40;11.07;;;;;;;21.61;74.19;96096.69;5055931;28;20204;-72
2021/09/09 08:26:16;;;;;;;16.15;9.73;;;;;;;21.70;72.79;96099.72;5055465;28;20224;-73
2021/09/09 08:28:42;;;;;;;16.35;10.45;;;;;;;22.03;73.20;96103.09;5055764;28;20215;-73
2021/09/09 08:31:09;;;;;;;17.17;9.75;;;;;;;22.25;73.74;96101.19;5056242;28;20193;-72
2021/09/09 08:33:38;;;;;;;15.20;9.50;;;;;;;22.67;72.72;96102.19;5055766;28;20215;-73
2021/09/09 08:36:07;;;;;;;16.40;9.63;;;;;;;22.76;73.28;96096.13;5055338;28;20209;-72
2021/09/09 08:38:34;;;;;;;16.70;9.77;;;;;;;22.59;73.29;96108.84;5058165;28;20234;-72
2021/09/09 08:41:02;;;;;;;14.95;8.70;;;;;;;22.86;72.06;96101.56;5059759;28;20227;-73
2021/09/09 08:43:28;;;;;;;17.77;9.45;;;;;;;22.78;71.09;96102.84;5059083;28;20389;-72
2021/09/09 08:45:55;;;;;;;12.98;7.95;;;;;;;22.77;70.34;96106.59;5058776;28;20211;-72
2021/09/09 08:48:22;;;;;;;15.80;9.00;;;;;;;23.00;72.22;96098.22;5058966;28;20584;-73
2021/09/09 08:50:50;;;;;;;14.75;8.45;;;;;;;23.20;69.01;96108.31;5059697;28;20200;-72
2021/09/09 08:53:18;;;;;;;14.70;8.55;;;;;;;23.15;69.49;96108.28;5058928;28;20200;-72
2021/09/09 08:55:44;;;;;;;13.82;6.50;;;;;;;23.43;68.31;96098.81;5059826;28;20660;-73
2021/09/09 08:58:11;;;;;;;11.00;8.30;;;;;;;23.61;68.45;96102.94;5058983;28;20255;-73
2021/09/09 09:00:38;;;;;;;16.05;8.43;;;;;;;23.70;67.98;96096.84;5059364;28;20583;-72
2021/09/09 09:03:04;;;;;;;14.27;7.78;;;;;;;23.78;66.61;96101.72;5058499;28;20211;-73
2021/09/09 09:05:39;;;;;;;11.57;8.07;;;;;;;24.27;66.89;96105.69;5058796;28;20489;-73
2021/09/09 09:08:07;;;;;;;12.32;8.07;;;;;;;23.99;66.46;96106.94;5059133;28;20224;-72
2021/09/09 09:10:34;;;;;;;13.35;8.13;;;;;;;24.08;67.09;96096.47;5059141;28;20679;-73
2021/09/09 09:13:01;;;;;;;7.38;4.97;;;;;;;24.09;65.88;96106.16;5059248;28;20208;-73
2021/09/09 09:15:29;;;;;;;9.88;6.93;;;;;;;24.22;65.06;96100.28;5058640;28;20208;-72
2021/09/09 09:18:08;;;;;;;14.60;6.88;;;;;;;24.69;64.66;96110.69;5058601;28;20220;-73
2021/09/09 09:20:44;;;;;;;11.93;5.97;;;;;;;24.73;63.78;96109.06;5059482;28;20674;-73
2021/09/09 09:23:18;;;;;;;9.85;6.55;;;;;;;24.83;62.51;96106.38;5059016;28;20206;-73
2021/09/09 09:25:51;;;;;;;9.10;6.53;;;;;;;25.04;62.40;96105.31;5057652;28;20203;-73
2021/09/09 09:28:38;;;;;;;10.07;6.10;;;;;;;25.00;61.96;96106.09;5059291;28;20700;-73
2021/09/09 09:31:06;;;;;;;10.43;7.03;;;;;;;25.23;62.22;96106.44;5058805;28;20681;-73
2021/09/09 09:33:35;;;;;;;10.27;6.40;;;;;;;25.36;60.78;96112.06;5058106;28;20372;-73
2021/09/09 09:36:20;;;;;;;15.05;7.28;;;;;;;25.38;59.60;96114.50;5057566;28;20201;-73
2021/09/09 09:38:49;;;;;;;11.80;6.45;;;;;;;25.37;60.01;96102.09;5058332;28;20207;-72
2021/09/09 09:41:18;;;;;;;11.60;6.90;;;;;;;25.55;59.70;96099.63;5058244;28;20227;-72
2021/09/09 09:43:53;;;;;;;15.90;6.75;;;;;;;25.79;59.33;96102.56;5058483;28;20264;-72
2021/09/09 09:46:28;;;;;;;11.07;6.75;;;;;;;25.98;59.52;96097.09;5057509;28;20224;-72
2021/09/09 09:48:54;;;;;;;9.68;6.20;;;;;;;25.51;59.97;96086.94;5057557;28;20200;-72
2021/09/09 09:51:41;;;;;;;12.60;6.82;;;;;;;25.53;60.56;96096.38;5058218;28;20193;-71
2021/09/09 09:54:10;;;;;;;9.05;6.55;;;;;;;25.71;60.52;96097.72;5057942;28;20228;-72
2021/09/09 09:56:37;;;;;;;12.70;6.82;;;;;;;25.55;61.91;96091.53;5057794;28;20737;-72
2021/09/09 09:59:04;;;;;;;9.70;5.80;;;;;;;25.46;60.46;96095.06;5058803;28;20819;-72
2021/09/09 10:01:31;;;;;;;11.18;6.80;;;;;;;25.30;63.29;96104.25;5057806;28;20228;-72
2021/09/09 10:04:01;;;;;;;9.48;6.05;;;;;;;25.19;60.43;96103.44;5058394;28;20650;-72
2021/09/09 10:06:29;;;;;;;9.35;6.00;;;;;;;24.94;60.53;96097.22;5056528;28;20231;-72
2021/09/09 10:08:56;;;;;;;11.13;6.75;;;;;;;24.95;60.13;96104.22;5057420;28;20200;-72
2021/09/09 10:11:24;;;;;;;13.25;6.72;;;;;;;25.37;61.29;96108.28;5057883;28;20215;-70
2021/09/09 10:13:51;;;;;;;10.15;6.28;;;;;;;25.68;59.62;96104.44;5057955;28;20201;-71
2021/09/09 10:16:21;;;;;;;13.93;6.80;;;;;;;26.46;61.17;96105.31;5056194;28;20604;-72
2021/09/09 10:18:47;;;;;;;11.93;7.40;;;;;;;26.44;58.35;96098.56;5057734;28;20204;-72
2021/09/09 10:21:33;;;;;;;10.35;6.57;;;;;;;26.31;57.42;96104.53;5058485;28;20329;-71
2021/09/09 10:24:08;;;;;;;10.13;6.18;;;;;;;26.77;58.40;96095.09;5058325;28;20204;-71
2021/09/09 10:26:36;;;;;;;13.20;6.57;;;;;;;26.66;56.66;96101.66;5057057;28;20223;-72
2021/09/09 10:29:02;;;;;;;9.63;5.63;;;;;;;26.31;56.09;96096.44;5058341;28;20201;-72
2021/09/09 10:31:38;;;;;;;9.93;5.65;;;;;;;26.77;55.90;96093.19;5058187;28;20204;-72
2021/09/09 10:34:08;;;;;;;15.82;7.25;;;;;;;27.11;54.44;96086.75;5058086;28;20254;-71
2021/09/09 10:36:40;;;;;;;11.27;6.03;;;;;;;27.07;54.49;96092.19;5056924;28;20712;-71
2021/09/09 10:39:07;;;;;;;9.35;5.15;;;;;;;26.59;53.92;96087.63;5057619;28;20211;-71
2021/09/09 10:41:35;;;;;;;11.80;6.35;;;;;;;26.76;53.98;96093.50;5057685;28;20239;-71
2021/09/09 10:44:03;;;;;;;9.55;5.78;;;;;;;26.72;53.45;96095.16;5057399;28;20196;-71
2021/09/09 10:46:32;;;;;;;16.67;6.32;;;;;;;26.53;54.34;96091.47;5056339;28;20235;-71
2021/09/09 10:49:14;;;;;;;10.18;6.20;;;;;;;26.98;54.92;96083.09;5057259;28;20284;-72
2021/09/09 10:52:10;;;;;;;9.73;5.38;;;;;;;26.66;54.72;96091.66;5057667;28;20208;-72
2021/09/09 10:55:05;;;;;;;9.82;5.80;;;;;;;26.86;54.12;96082.56;5058133;28;20209;-72
2021/09/09 10:57:33;;;;;;;7.78;6.30;;;;;;;26.97;55.09;96086.88;5056049;28;21031;-72
2021/09/09 11:00:02;;;;;;;10.38;5.75;;;;;;;26.79;51.67;96087.50;5057298;28;20215;-72
2021/09/09 11:02:30;;;;;;;8.38;5.68;;;;;;;26.61;49.79;96090.88;5056004;28;20224;-73
2021/09/09 11:05:02;;;;;;;7.28;4.30;;;;;;;27.05;49.66;96076.25;5057331;28;20200;-73
2021/09/09 11:07:31;;;;;;;7.10;4.70;;;;;;;27.19;49.14;96074.53;5056217;28;20224;-73
2021/09/09 11:09:59;;;;;;;7.45;4.70;;;;;;;27.14;48.07;96075.34;5056694;28;20204;-73
2021/09/09 11:12:25;;;;;;;5.95;4.10;;;;;;;27.10;47.19;96071.59;5056365;28;20582;-73
2021/09/09 11:14:53;;;;;;;9.63;4.28;;;;;;;27.15;47.75;96079.69;5057341;28;20196;-72
2021/09/09 11:17:20;;;;;;;12.73;4.63;;;;;;;26.93;47.06;96069.56;5054929;28;20227;-73
2021/09/09 11:19:46;;;;;;;7.57;3.35;;;;;;;26.81;46.83;96077.22;5056638;28;20578;-72
2021/09/09 11:22:13;;;;;;;11.32;5.57;;;;;;;27.14;46.02;96075.34;5053752;28;20232;-72